Time;durP1;ratioP1;P1;durP2;ratioP2;P2;SDS_P1;SDS_P2;PMS_P1;PMS_P2;Temp;Humidity;BMP_temperature;BMP_pressure;BME280_temperature;BME280_humidity;BME280_pressure;Samples;Min_cycle;Max_cycle;Signal;HPM_P1;HPM_P2
2023/01/17 00:00:10;;;;;;;;;;;;;;;12.25;48.29;97400.81;4981283;27;124687;-66
2023/01/17 00:02:36;;;;;;;;;;;;;;;12.23;48.43;97392.28;4992597;27;99934;-67
2023/01/17 00:10:31;;;;;;;;;;;;;;;12.21;48.21;97386.44;4979694;27;98064;-67
2023/01/17 00:13:02;;;;;;;;;;;;;;;12.21;48.42;97382.97;4976578;27;127767;-67
2023/01/17 00:15:29;;;;;;;;;;;;;;;12.22;48.34;97384.53;4965504;27;98052;-67
2023/01/17 00:17:55;;;;;;;;;;;;;;;12.22;48.46;97377.22;4997661;27;97975;-67
2023/01/17 00:26:02;;;;;;;;;;;;;;;12.21;48.63;97381.03;4981006;27;98507;-67
2023/01/17 01:35:21;;;;;;;;;;;;;;;12.10;48.18;97361.13;4980611;27;99062;-67
2023/01/17 01:37:47;;;;;;;;;;;;;;;12.12;48.31;97366.97;4965901;27;122131;-67
2023/01/17 01:40:13;;;;;;;;;;;;;;;12.12;48.26;97356.16;4963018;27;130712;-67
2023/01/17 01:42:48;;;;;;;;;;;;;;;12.12;48.12;97350.75;4977833;27;115021;-67
2023/01/17 01:45:16;;;;;;;;;;;;;;;12.12;48.23;97350.75;4977622;27;98076;-67
2023/01/17 01:47:42;;;;;;;;;;;;;;;12.12;48.23;97342.66;4960073;27;98735;-68
2023/01/17 01:50:09;;;;;;;;;;;;;;;12.13;48.22;97351.53;4976211;27;127933;-67
2023/01/17 01:52:37;;;;;;;;;;;;;;;12.14;48.20;97348.47;4966329;27;100611;-67
2023/01/17 01:55:28;;;;;;;;;;;;;;;12.12;48.24;97345.38;4964629;27;114735;-67
2023/01/17 01:57:55;;;;;;;;;;;;;;;12.13;48.30;97352.31;4955632;27;124161;-67
2023/01/17 02:00:23;;;;;;;;;;;;;;;12.13;48.28;97349.63;4968009;27;98555;-67
2023/01/17 02:02:50;;;;;;;;;;;;;;;12.13;48.14;97349.63;4967753;27;98043;-67
2023/01/17 02:05:17;;;;;;;;;;;;;;;12.13;48.31;97348.84;4964249;27;104648;-67
2023/01/17 02:08:06;;;;;;;;;;;;;;;12.13;48.21;97351.53;4947423;27;102871;-67
2023/01/17 02:10:36;;;;;;;;;;;;;;;12.13;48.07;97354.25;4963525;27;100015;-66
2023/01/17 02:13:02;;;;;;;;;;;;;;;12.13;48.29;97346.13;4967381;27;99353;-67
2023/01/17 02:15:46;;;;;;;;;;;;;;;12.13;48.40;97346.13;4978165;27;115380;-66
2023/01/17 02:18:20;;;;;;;;;;;;;;;12.13;48.11;97344.22;4965806;27;99454;-67
2023/01/17 02:21:20;;;;;;;;;;;;;;;12.13;48.05;97349.63;4965075;27;99117;-67
2023/01/17 02:24:24;;;;;;;;;;;;;;;12.15;48.28;97346.59;5000922;27;99602;-67
2023/01/17 02:26:54;;;;;;;;;;;;;;;12.14;48.26;97355.78;4997846;27;97942;-67
2023/01/17 02:30:09;;;;;;;;;;;;;;;12.15;48.18;97346.59;4983077;27;98594;-67
2023/01/17 02:32:53;;;;;;;;;;;;;;;12.15;48.18;97341.19;4959208;27;128598;-67
2023/01/17 02:35:45;;;;;;;;;;;;;;;12.16;48.24;97340.81;4984153;27;98362;-67
2023/01/17 02:38:23;;;;;;;;;;;;;;;12.16;48.23;97348.13;4981774;27;110939;-67
2023/01/17 02:40:56;;;;;;;;;;;;;;;12.15;48.30;97343.88;4961521;27;116078;-67
2023/01/17 02:43:22;;;;;;;;;;;;;;;12.17;48.10;97353.19;4964434;27;117016;-67
2023/01/17 02:45:48;;;;;;;;;;;;;;;12.17;48.35;97352.41;4980499;27;98018;-67
2023/01/17 02:48:15;;;;;;;;;;;;;;;12.17;48.10;97352.41;4963837;27;121886;-67
2023/01/17 02:50:53;;;;;;;;;;;;;;;12.17;48.18;97353.19;4976694;27;124335;-67
2023/01/17 02:53:55;;;;;;;;;;;;;;;12.18;48.11;97356.66;4953252;27;121342;-67
2023/01/17 02:56:44;;;;;;;;;;;;;;;12.19;48.18;97360.94;4941435;27;113977;-67
2023/01/17 02:59:32;;;;;;;;;;;;;;;12.19;48.13;97363.66;4996548;27;98742;-67
2023/01/17 03:01:57;;;;;;;;;;;;;;;12.19;48.10;97361.72;4966342;27;124943;-67
2023/01/17 03:04:27;;;;;;;;;;;;;;;12.20;48.35;97357.88;4996527;27;98555;-66
2023/01/17 03:06:56;;;;;;;;;;;;;;;12.20;48.22;97360.59;4966646;27;99053;-67
2023/01/17 03:09:22;;;;;;;;;;;;;;;12.21;48.14;97358.66;4983783;27;111834;-67
2023/01/17 03:11:48;;;;;;;;;;;;;;;12.21;48.27;97356.75;4979113;27;98132;-67
2023/01/17 03:14:14;;;;;;;;;;;;;;;12.22;48.13;97365.63;4977400;27;130609;-67
2023/01/17 03:16:40;;;;;;;;;;;;;;;12.21;48.23;97364.06;4974551;27;99002;-67
2023/01/17 03:19:08;;;;;;;;;;;;;;;12.22;48.02;97360.22;4978481;27;97999;-67
2023/01/17 03:21:34;;;;;;;;;;;;;;;12.21;48.01;97370.25;4981103;27;98332;-67
2023/01/17 03:24:01;;;;;;;;;;;;;;;12.20;48.04;97368.69;4980551;27;118525;-67
2023/01/17 03:26:27;;;;;;;;;;;;;;;12.19;48.24;97372.53;4963139;27;99056;-67
2023/01/17 03:28:53;;;;;;;;;;;;;;;12.19;48.26;97377.16;4965404;27;120300;-67
2023/01/17 03:31:19;;;;;;;;;;;;;;;12.18;48.18;97384.47;4977305;27;127886;-67
2023/01/17 03:33:45;;;;;;;;;;;;;;;12.17;48.11;97388.28;4980381;27;127339;-67
2023/01/17 03:36:11;;;;;;;;;;;;;;;12.18;48.11;97391.75;4977730;27;99610;-67
2023/01/17 03:38:37;;;;;;;;;;;;;;;12.17;48.27;97393.69;4981351;27;98205;-67
2023/01/17 03:41:03;;;;;;;;;;;;;;;12.18;48.05;97383.66;4980480;27;99584;-67
2023/01/17 03:43:29;;;;;;;;;;;;;;;12.19;48.13;97390.66;4964970;27;125341;-67
2023/01/17 03:46:06;;;;;;;;;;;;;;;12.18;48.21;97403.38;4979928;27;127817;-67
2023/01/17 03:48:32;;;;;;;;;;;;;;;12.19;48.24;97401.44;4997822;27;97854;-67
2023/01/17 03:50:58;;;;;;;;;;;;;;;12.18;47.86;97397.97;4968064;27;99447;-68
2023/01/17 03:53:24;;;;;;;;;;;;;;;12.17;47.99;97406.41;4979835;27;128690;-67
2023/01/17 03:55:49;;;;;;;;;;;;;;;12.19;48.10;97412.25;4978237;27;126397;-67
2023/01/17 03:58:15;;;;;;;;;;;;;;;12.18;48.11;97413.34;4964844;27;121664;-67
2023/01/17 04:00:41;;;;;;;;;;;;;;;12.17;48.06;97417.97;4962590;27;99649;-67
2023/01/17 04:03:07;;;;;;;;;;;;;;;12.16;48.03;97416.44;4968077;27;121838;-67
2023/01/17 04:05:33;;;;;;;;;;;;;;;12.16;48.09;97421.81;4997010;27;98091;-67
2023/01/17 04:07:59;;;;;;;;;;;;;;;12.15;48.03;97419.47;4963663;27;98035;-67
2023/01/17 04:10:25;;;;;;;;;;;;;;;12.14;48.08;97434.88;4966249;27;98452;-67
2023/01/17 04:12:54;;;;;;;;;;;;;;;12.13;48.08;97436.03;4964115;27;112017;-67
2023/01/17 04:15:20;;;;;;;;;;;;;;;12.14;48.21;97447.59;4983020;27;98066;-68
2023/01/17 04:17:46;;;;;;;;;;;;;;;12.12;48.18;97447.19;4978005;27;123312;-68
2023/01/17 04:20:34;;;;;;;;;;;;;;;12.12;48.25;97442.56;4961202;27;97935;-68
2023/01/17 04:23:00;;;;;;;;;;;;;;;12.11;48.00;97454.50;4982922;27;117680;-66
2023/01/17 04:25:26;;;;;;;;;;;;;;;12.11;48.17;97448.31;4965452;27;104805;-67
2023/01/17 04:27:52;;;;;;;;;;;;;;;12.11;48.19;97456.41;4978711;27;98275;-67
2023/01/17 04:30:18;;;;;;;;;;;;;;;12.10;48.19;97461.00;4965189;27;127576;-66
2023/01/17 04:32:44;;;;;;;;;;;;;;;12.10;48.31;97458.31;4979876;27;97882;-66
2023/01/17 04:35:10;;;;;;;;;;;;;;;12.11;48.16;97457.19;4979185;27;119577;-66
2023/01/17 04:37:36;;;;;;;;;;;;;;;12.12;48.33;97463.38;4965162;27;99578;-67
2023/01/17 04:40:03;;;;;;;;;;;;;;;12.11;48.18;97461.81;4965154;27;129331;-66
2023/01/17 04:42:29;;;;;;;;;;;;;;;12.12;48.28;97456.06;4964078;27;112484;-66
2023/01/17 04:44:55;;;;;;;;;;;;;;;12.11;48.16;97457.19;4981107;27;117625;-66
2023/01/17 04:47:21;;;;;;;;;;;;;;;12.12;48.18;97464.16;4963250;27;124648;-66
2023/01/17 04:49:47;;;;;;;;;;;;;;;12.12;48.53;97466.84;4980410;27;127025;-67
2023/01/17 04:52:13;;;;;;;;;;;;;;;12.11;48.02;97481.50;4982248;27;127759;-66
2023/01/17 04:54:40;;;;;;;;;;;;;;;12.11;48.15;97484.19;4966640;27;98899;-67
2023/01/17 04:57:06;;;;;;;;;;;;;;;12.11;47.88;97488.81;4965392;27;110269;-67
2023/01/17 04:59:31;;;;;;;;;;;;;;;12.12;48.32;97493.06;4982633;27;122636;-66
2023/01/17 05:01:58;;;;;;;;;;;;;;;12.10;48.25;97501.50;4985383;27;128633;-66
2023/01/17 05:04:23;;;;;;;;;;;;;;;12.10;48.11;97515.00;4982477;27;127633;-66
2023/01/17 05:06:49;;;;;;;;;;;;;;;12.10;48.17;97511.53;4964523;27;119434;-66
2023/01/17 05:09:15;;;;;;;;;;;;;;;12.09;48.13;97502.66;5000885;27;128727;-66
2023/01/17 05:11:41;;;;;;;;;;;;;;;12.10;48.19;97500.72;4981473;27;128675;-67
2023/01/17 05:14:08;;;;;;;;;;;;;;;12.09;48.31;97509.97;4966981;27;126913;-67
2023/01/17 05:16:34;;;;;;;;;;;;;;;12.09;48.21;97510.75;4984726;27;98317;-67
2023/01/17 05:19:01;;;;;;;;;;;;;;;12.09;48.13;97510.75;4968176;27;128298;-67
2023/01/17 05:21:26;;;;;;;;;;;;;;;12.09;48.12;97518.06;4984870;27;98139;-68
2023/01/17 05:23:52;;;;;;;;;;;;;;;12.09;48.10;97531.56;4966296;27;98034;-67
2023/01/17 05:26:18;;;;;;;;;;;;;;;12.09;48.00;97531.56;4985355;27;101576;-66
2023/01/17 05:28:44;;;;;;;;;;;;;;;12.09;48.05;97532.34;4968934;27;98086;-68
2023/01/17 05:31:10;;;;;;;;;;;;;;;12.09;48.16;97545.06;4986650;27;128227;-67
2023/01/17 05:33:36;;;;;;;;;;;;;;;12.10;48.33;97541.22;4985908;27;120461;-68
2023/01/17 05:36:02;;;;;;;;;;;;;;;12.10;48.58;97555.50;4967445;27;112925;-67
2023/01/17 05:38:28;;;;;;;;;;;;;;;12.10;48.21;97560.91;4983365;27;119472;-67
2023/01/17 05:40:54;;;;;;;;;;;;;;;12.10;48.32;97550.09;5002774;27;119365;-67
2023/01/17 05:43:21;;;;;;;;;;;;;;;12.10;48.17;97560.91;4983414;27;114563;-67
2023/01/17 05:45:48;;;;;;;;;;;;;;;12.10;48.30;97574.41;4984244;27;97887;-68
2023/01/17 05:48:14;;;;;;;;;;;;;;;12.10;48.06;97560.91;4966766;27;98395;-67
2023/01/17 05:50:40;;;;;;;;;;;;;;;12.11;48.22;97564.41;4968089;27;128946;-67
2023/01/17 05:53:07;;;;;;;;;;;;;;;12.11;48.07;97569.81;4960645;27;127513;-67
2023/01/17 05:55:33;;;;;;;;;;;;;;;12.11;48.15;97569.81;4946203;27;98379;-67
2023/01/17 05:57:59;;;;;;;;;;;;;;;12.10;47.85;97579.03;4977565;27;104641;-67
2023/01/17 06:00:25;;;;;;;;;;;;;;;12.11;48.01;97576.00;4964614;27;112044;-67
2023/01/17 06:02:55;;;;;;;;;;;;;;;12.11;48.15;97580.63;4978168;27;98216;-67
2023/01/17 06:05:22;;;;;;;;;;;;;;;12.10;48.22;97587.91;4961218;27;98569;-67
2023/01/17 06:07:48;;;;;;;;;;;;;;;12.11;48.09;97592.19;4958292;27;98355;-67
2023/01/17 06:10:14;;;;;;;;;;;;;;;12.10;47.99;97587.13;4964347;27;98525;-67
2023/01/17 06:12:41;;;;;;;;;;;;;;;12.11;47.99;97599.50;4962429;27;98290;-67
2023/01/17 06:15:07;;;;;;;;;;;;;;;12.11;48.17;97602.22;4947827;27;98571;-67
2023/01/17 06:17:34;;;;;;;;;;;;;;;12.10;48.16;97601.41;4970071;27;105242;-67
2023/01/17 06:20:00;;;;;;;;;;;;;;;12.11;48.07;97603.00;4946719;27;97830;-67
2023/01/17 06:22:25;;;;;;;;;;;;;;;12.11;48.25;97600.31;4974783;27;129694;-67
2023/01/17 06:24:51;;;;;;;;;;;;;;;12.11;48.08;97602.22;4945832;27;124022;-67
2023/01/17 06:27:17;;;;;;;;;;;;;;;12.10;48.30;97611.44;4978260;27;128426;-67
2023/01/17 06:29:43;;;;;;;;;;;;;;;12.11;48.02;97607.63;4946643;27;115484;-67
2023/01/17 06:32:09;;;;;;;;;;;;;;;12.09;48.09;97610.66;4976357;27;126742;-67
2023/01/17 06:34:36;;;;;;;;;;;;;;;12.09;48.08;97607.16;4945905;27;98163;-67
2023/01/17 06:37:02;;;;;;;;;;;;;;;12.09;48.03;97617.97;4962764;27;99336;-67
2023/01/17 06:39:28;;;;;;;;;;;;;;;12.09;48.01;97626.06;4945612;27;128943;-67
2023/01/17 06:41:54;;;;;;;;;;;;;;;12.09;48.15;97615.25;4962096;27;127894;-67
2023/01/17 06:44:21;;;;;;;;;;;;;;;12.08;48.08;97625.28;4960927;27;98724;-67
2023/01/17 06:46:46;;;;;;;;;;;;;;;12.08;48.17;97617.19;4955285;27;127071;-67
2023/01/17 06:49:13;;;;;;;;;;;;;;;12.08;48.19;97627.97;4977089;27;98396;-67
2023/01/17 06:51:39;;;;;;;;;;;;;;;12.07;48.07;97622.94;4978327;27;118549;-67
2023/01/17 06:54:05;;;;;;;;;;;;;;;12.08;48.11;97635.31;4963955;27;117801;-67
2023/01/17 06:56:31;;;;;;;;;;;;;;;12.08;48.10;97636.09;4943558;28;114091;-67
2023/01/17 06:58:57;;;;;;;;;;;;;;;12.08;47.95;97643.41;4948730;27;104116;-67
2023/01/17 07:01:23;;;;;;;;;;;;;;;12.08;48.39;97643.41;4964195;27;128178;-67
2023/01/17 07:03:51;;;;;;;;;;;;;;;12.09;47.96;97648.44;4967594;27;122360;-67
2023/01/17 07:06:17;;;;;;;;;;;;;;;12.11;48.08;97651.59;4966761;27;98559;-67
2023/01/17 07:08:43;;;;;;;;;;;;;;;12.13;48.00;97651.25;4961930;27;98300;-67
2023/01/17 07:11:09;;;;;;;;;;;;;;;12.15;47.93;97657.09;4960370;27;102317;-67
2023/01/17 07:13:35;;;;;;;;;;;;;;;12.19;47.83;97656.06;4962704;27;111789;-67
2023/01/17 07:16:02;;;;;;;;;;;;;;;12.19;48.02;97656.06;4963706;27;99548;-67
2023/01/17 07:18:28;;;;;;;;;;;;;;;12.19;48.07;97664.16;4935425;28;99911;-67
2023/01/17 07:20:54;;;;;;;;;;;;;;;12.21;47.96;97661.88;4959821;27;117047;-67
2023/01/17 07:23:21;;;;;;;;;;;;;;;12.21;47.99;97659.19;4962852;27;122107;-67
2023/01/17 07:25:57;;;;;;;;;;;;;;;12.23;47.93;97664.25;4945409;27;98150;-67
2023/01/17 07:28:23;;;;;;;;;;;;;;;12.22;48.03;97679.69;4961912;27;123397;-67
2023/01/17 07:30:49;;;;;;;;;;;;;;;12.23;47.90;97667.75;4948261;27;116898;-67
2023/01/17 07:33:16;;;;;;;;;;;;;;;12.25;47.92;97665.47;4963005;27;111989;-67
2023/01/17 07:35:42;;;;;;;;;;;;;;;12.26;47.99;97680.56;4946622;27;98298;-67
2023/01/17 07:38:12;;;;;;;;;;;;;;;12.28;47.97;97675.59;4964237;27;98029;-67
2023/01/17 07:40:38;;;;;;;;;;;;;;;12.37;47.82;97682.75;4964423;27;114546;-67
2023/01/17 07:43:12;;;;;;;;;;;;;;;12.42;47.71;97680.59;4962545;27;123062;-68
2023/01/17 07:45:45;;;;;;;;;;;;;;;12.52;47.77;97679.28;4960728;27;98207;-67
2023/01/17 07:48:11;;;;;;;;;;;;;;;12.61;47.45;97682.59;4981485;27;98406;-68
2023/01/17 07:50:37;;;;;;;;;;;;;;;12.66;47.44;97685.06;4953926;27;98050;-68
2023/01/17 07:53:04;;;;;;;;;;;;;;;12.77;47.31;97680.72;4989665;27;97907;-67
2023/01/17 07:55:30;;;;;;;;;;;;;;;12.88;47.44;97680.97;5008803;27;98238;-67
2023/01/17 07:57:56;;;;;;;;;;;;;;;13.01;47.42;97679.75;4975991;27;98105;-67
2023/01/17 08:00:22;;;;;;;;;;;;;;;13.04;47.39;97686.34;4974567;27;131973;-67
2023/01/17 08:02:48;;;;;;;;;;;;;;;13.07;47.40;97701.09;4992465;27;114436;-67
2023/01/17 08:05:14;;;;;;;;;;;;;;;13.25;47.18;97699.66;4989045;27;118492;-67
2023/01/17 08:07:40;;;;;;;;;;;;;;;13.78;46.57;97705.44;4987432;27;123734;-67
2023/01/17 08:10:11;;;;;;;;;;;;;;;14.31;45.88;97697.63;4969564;27;98987;-67
2023/01/17 08:12:37;;;;;;;;;;;;;;;14.75;45.52;97705.41;4986990;27;98195;-67
2023/01/17 08:15:04;;;;;;;;;;;;;;;15.11;45.28;97706.00;4974439;27;130258;-67
2023/01/17 08:17:30;;;;;;;;;;;;;;;15.47;45.43;97710.03;4967033;27;97918;-67
2023/01/17 08:19:56;;;;;;;;;;;;;;;15.82;45.25;97698.94;4991272;27;99608;-67
2023/01/17 08:22:22;;;;;;;;;;;;;;;16.20;45.25;97711.44;5005313;27;122372;-68
2023/01/17 08:24:48;;;;;;;;;;;;;;;16.79;44.93;97711.69;4988087;27;121550;-66
2023/01/17 08:27:14;;;;;;;;;;;;;;;17.22;44.74;97720.22;4969852;27;98083;-67
2023/01/17 08:29:45;;;;;;;;;;;;;;;16.98;45.42;97726.22;4974019;27;125353;-67
2023/01/17 08:32:11;;;;;;;;;;;;;;;17.46;44.97;97727.00;4974925;27;98091;-67
2023/01/17 08:34:37;;;;;;;;;;;;;;;17.93;44.56;97736.28;4991388;27;99415;-68
2023/01/17 08:37:03;;;;;;;;;;;;;;;18.04;44.75;97725.44;4992726;27;125438;-68
2023/01/17 08:39:29;;;;;;;;;;;;;;;18.44;44.56;97737.28;4969569;27;127185;-68
2023/01/17 08:41:56;;;;;;;;;;;;;;;18.31;45.21;97736.81;4971459;27;99242;-68
2023/01/17 08:44:22;;;;;;;;;;;;;;;18.07;45.31;97739.06;4970268;27;98221;-68
2023/01/17 08:46:48;;;;;;;;;;;;;;;17.92;45.38;97737.44;4981913;27;99807;-67
2023/01/17 08:49:14;;;;;;;;;;;;;;;17.76;45.74;97750.56;4990960;27;97999;-68
2023/01/17 08:51:40;;;;;;;;;;;;;;;17.60;46.03;97737.97;4989422;27;122505;-68
2023/01/17 08:54:06;;;;;;;;;;;;;;;17.27;46.35;97743.59;4968603;27;98272;-67
2023/01/17 08:56:32;;;;;;;;;;;;;;;16.98;46.70;97753.44;4964970;27;98395;-67
2023/01/17 08:58:58;;;;;;;;;;;;;;;16.73;46.79;97753.97;4981673;27;122754;-67
2023/01/17 09:01:24;;;;;;;;;;;;;;;16.82;46.38;97754.47;4963373;27;122912;-67
2023/01/17 09:03:50;;;;;;;;;;;;;;;16.82;46.49;97768.06;4969212;27;111134;-68
2023/01/17 09:06:16;;;;;;;;;;;;;;;16.68;46.48;97757.00;4965369;27;99510;-68
2023/01/17 09:08:48;;;;;;;;;;;;;;;16.45;46.73;97763.34;4968038;27;111821;-67
2023/01/17 09:11:15;;;;;;;;;;;;;;;16.22;47.04;97778.22;4966177;27;97935;-67
2023/01/17 09:13:41;;;;;;;;;;;;;;;16.01;47.36;97795.03;4946188;27;98760;-69
2023/01/17 09:16:07;;;;;;;;;;;;;;;15.87;47.25;97792.88;4968074;27;120321;-68
2023/01/17 09:18:34;;;;;;;;;;;;;;;15.75;47.37;97798.53;4962563;27;122641;-67
2023/01/17 09:21:13;;;;;;;;;;;;;;;15.69;47.27;97795.34;4966946;27;110677;-67
2023/01/17 09:23:38;;;;;;;;;;;;;;;15.66;47.22;97802.28;4982051;27;98222;-67
2023/01/17 09:26:04;;;;;;;;;;;;;;;15.60;47.17;97811.88;4958290;27;124245;-68
2023/01/17 09:28:30;;;;;;;;;;;;;;;15.54;47.28;97812.53;4980913;27;125018;-67
2023/01/17 09:30:56;;;;;;;;;;;;;;;15.48;47.17;97803.91;4968825;27;99163;-67
2023/01/17 09:33:23;;;;;;;;;;;;;;;15.38;47.32;97816.16;4950614;27;128429;-67
2023/01/17 09:35:49;;;;;;;;;;;;;;;15.25;47.43;97822.13;4969926;27;98483;-67
2023/01/17 09:38:15;;;;;;;;;;;;;;;15.13;47.24;97821.16;4949191;27;114447;-67
2023/01/17 09:40:46;;;;;;;;;;;;;;;15.01;47.30;97824.03;4966303;27;121947;-67
2023/01/17 09:43:34;;;;;;;;;;;;;;;14.89;47.44;97824.97;4952572;27;117294;-68
2023/01/17 09:46:00;;;;;;;;;;;;;;;14.89;47.40;97819.53;4983902;27;98512;-68
2023/01/17 09:48:36;;;;;;;;;;;;;;;15.01;47.30;97834.09;4945191;27;107556;-67
2023/01/17 09:51:20;;;;;;;;;;;;;;;14.89;47.11;97838.53;4968975;27;98388;-67
2023/01/17 09:53:46;;;;;;;;;;;;;;;14.85;47.35;97836.91;4981858;27;98630;-67
2023/01/17 09:56:28;;;;;;;;;;;;;;;14.90;47.13;97831.19;4980816;27;100766;-67
2023/01/17 09:59:32;;;;;;;;;;;;;;;15.04;47.07;97845.00;4995770;27;98425;-67
2023/01/17 10:02:29;;;;;;;;;;;;;;;15.35;46.89;97848.66;4993611;27;109806;-67
2023/01/17 10:05:04;;;;;;;;;;;;;;;15.65;46.43;97837.97;4998597;27;98541;-68
2023/01/17 10:07:31;;;;;;;;;;;;;;;15.75;46.48;97833.81;4993761;27;123555;-67
2023/01/17 10:10:04;;;;;;;;;;;;;;;15.77;46.57;97839.69;4993101;27;98001;-67
2023/01/17 10:12:39;;;;;;;;;;;;;;;15.80;46.44;97834.31;4958937;27;99017;-67
2023/01/17 10:15:27;;;;;;;;;;;;;;;15.94;46.44;97828.28;4996753;27;98292;-67
2023/01/17 10:18:34;;;;;;;;;;;;;;;16.07;46.20;97832.38;4992897;27;111705;-67
2023/01/17 10:21:22;;;;;;;;;;;;;;;16.17;46.18;97836.38;4939869;27;98295;-68
2023/01/17 10:24:02;;;;;;;;;;;;;;;16.02;46.51;97838.13;4963606;27;121396;-67
2023/01/17 10:26:28;;;;;;;;;;;;;;;15.89;46.63;97839.47;4979411;27;98241;-69
2023/01/17 10:29:03;;;;;;;;;;;;;;;15.83;46.69;97852.56;4976288;27;100636;-68
2023/01/17 10:31:54;;;;;;;;;;;;;;;15.69;46.93;97841.50;4976079;27;127284;-68
2023/01/17 10:34:39;;;;;;;;;;;;;;;15.55;47.44;97849.38;4973940;27;98228;-68
2023/01/17 10:37:18;;;;;;;;;;;;;;;15.41;46.99;97855.38;4992580;27;100447;-68
2023/01/17 10:39:45;;;;;;;;;;;;;;;15.28;47.18;97851.25;4976306;27;114056;-69
2023/01/17 10:42:31;;;;;;;;;;;;;;;15.22;47.21;97853.47;4962774;27;98061;-67
2023/01/17 10:45:06;;;;;;;;;;;;;;;15.17;47.15;97860.00;4978753;27;120734;-68
2023/01/17 10:47:35;;;;;;;;;;;;;;;15.09;47.39;97850.16;4973810;27;105730;-67
2023/01/17 10:50:02;;;;;;;;;;;;;;;15.03;47.45;97854.31;4978054;27;98193;-68
2023/01/17 10:52:44;;;;;;;;;;;;;;;15.02;47.41;97857.38;4980106;27;98197;-67
2023/01/17 10:55:47;;;;;;;;;;;;;;;14.92;47.34;97856.81;4981067;27;98272;-67
2023/01/17 10:58:13;;;;;;;;;;;;;;;14.86;47.32;97865.59;4980529;27;119333;-67
2023/01/17 11:00:49;;;;;;;;;;;;;;;14.81;47.27;97861.22;4978099;27;129143;-69
2023/01/17 11:03:16;;;;;;;;;;;;;;;14.78;47.51;97866.59;4994428;27;98092;-67
2023/01/17 11:05:42;;;;;;;;;;;;;;;14.71;47.46;97864.53;4977847;27;111337;-67
2023/01/17 11:08:10;;;;;;;;;;;;;;;14.66;47.66;97865.59;4961184;27;119964;-67
2023/01/17 11:10:39;;;;;;;;;;;;;;;14.64;47.54;97873.28;4964240;27;99505;-67
2023/01/17 11:13:15;;;;;;;;;;;;;;;14.63;47.46;97870.94;4996440;27;97985;-68
2023/01/17 11:15:41;;;;;;;;;;;;;;;14.64;47.48;97867.88;4962557;27;111682;-67
2023/01/17 11:18:12;;;;;;;;;;;;;;;14.64;47.39;97869.81;4976557;27;119778;-67
2023/01/17 11:20:38;;;;;;;;;;;;;;;14.61;47.57;97873.22;4976864;27;98134;-67
2023/01/17 11:23:12;;;;;;;;;;;;;;;14.62;47.07;97872.06;4980816;27;127106;-67
2023/01/17 11:25:38;;;;;;;;;;;;;;;14.58;47.30;97868.50;4997927;27;104720;-67
2023/01/17 11:28:29;;;;;;;;;;;;;;;14.56;47.30;97871.59;4966642;27;130660;-67
2023/01/17 11:31:06;;;;;;;;;;;;;;;14.53;47.18;97882.34;4995580;27;98529;-67
2023/01/17 11:33:47;;;;;;;;;;;;;;;14.49;47.19;97884.97;4983921;27;99802;-67
2023/01/17 11:36:21;;;;;;;;;;;;;;;14.46;47.25;97881.03;4983531;27;98245;-68
2023/01/17 11:39:04;;;;;;;;;;;;;;;14.44;47.31;97877.88;4994888;27;99128;-67
2023/01/17 11:41:38;;;;;;;;;;;;;;;14.42;47.34;97882.09;4982050;27;98242;-67
2023/01/17 11:44:23;;;;;;;;;;;;;;;14.41;47.28;97877.81;4980832;27;98149;-67
2023/01/17 11:47:12;;;;;;;;;;;;;;;14.42;47.25;97880.19;4980701;27;98036;-67
2023/01/17 11:49:47;;;;;;;;;;;;;;;14.45;47.30;97871.31;4982610;27;98224;-67
2023/01/17 11:52:25;;;;;;;;;;;;;;;14.42;47.26;97882.09;4967430;27;97990;-68
2023/01/17 11:54:52;;;;;;;;;;;;;;;14.33;47.60;97887.72;4986087;27;98251;-67
2023/01/17 11:57:25;;;;;;;;;;;;;;;14.30;47.58;97885.69;4986760;27;110395;-67
2023/01/17 12:00:00;;;;;;;;;;;;;;;14.26;47.58;97887.53;4986701;27;101724;-67
2023/01/17 12:02:49;;;;;;;;;;;;;;;14.25;47.33;97889.47;5003359;27;98913;-67
2023/01/17 12:05:33;;;;;;;;;;;;;;;14.27;47.58;97886.44;4985462;27;98186;-67
2023/01/17 12:08:17;;;;;;;;;;;;;;;14.25;47.61;97888.69;4969237;27;117313;-67
2023/01/17 12:11:12;;;;;;;;;;;;;;;14.27;47.35;97882.94;5019043;27;98024;-67
2023/01/17 12:13:59;;;;;;;;;;;;;;;14.31;47.26;97883.81;4991901;27;99738;-68
2023/01/17 12:16:31;;;;;;;;;;;;;;;14.45;47.23;97884.09;5018525;27;98147;-67
2023/01/17 12:19:22;;;;;;;;;;;;;;;14.56;47.09;97887.06;5003937;27;99527;-68
2023/01/17 12:22:17;;;;;;;;;;;;;;;14.67;47.30;97883.44;5004303;27;98081;-68
2023/01/17 12:25:06;;;;;;;;;;;;;;;14.81;47.26;97888.34;4987165;27;99531;-69
2023/01/17 12:27:44;;;;;;;;;;;;;;;14.88;47.08;97885.00;4983668;27;123704;-68
2023/01/17 12:30:41;;;;;;;;;;;;;;;14.95;47.20;97882.44;4988725;27;98072;-67
2023/01/17 12:33:11;;;;;;;;;;;;;;;15.03;47.13;97881.44;4989584;27;100454;-67
2023/01/17 12:36:03;;;;;;;;;;;;;;;15.16;47.19;97895.63;5001138;27;97726;-68
2023/01/17 12:38:36;;;;;;;;;;;;;;;15.26;46.78;97889.59;4981357;27;105624;-67
2023/01/17 12:41:05;;;;;;;;;;;;;;;15.35;46.98;97900.22;4968382;27;117902;-68
2023/01/17 12:43:36;;;;;;;;;;;;;;;15.41;46.94;97901.50;5002569;27;98627;-68
2023/01/17 12:46:06;;;;;;;;;;;;;;;15.52;46.90;97896.25;5002866;27;99408;-68
2023/01/17 12:48:34;;;;;;;;;;;;;;;15.61;46.86;97902.25;5001196;27;124960;-67
2023/01/17 12:51:14;;;;;;;;;;;;;;;15.71;46.76;97897.00;5002807;27;112402;-68
2023/01/17 12:53:53;;;;;;;;;;;;;;;15.78;46.64;97893.63;5000041;27;117769;-67
2023/01/17 12:56:32;;;;;;;;;;;;;;;15.85;46.63;97907.34;4999202;27;115077;-68
2023/01/17 12:59:07;;;;;;;;;;;;;;;15.88;46.62;97903.91;4982172;27;130657;-68
2023/01/17 13:01:38;;;;;;;;;;;;;;;15.87;46.73;97910.44;5000905;27;98407;-68
2023/01/17 13:04:27;;;;;;;;;;;;;;;15.84;46.75;97911.19;4971401;27;98923;-67
2023/01/17 13:06:59;;;;;;;;;;;;;;;15.82;46.94;97913.47;4984217;27;100418;-67
2023/01/17 13:09:29;;;;;;;;;;;;;;;15.81;46.83;97920.06;4987260;27;98195;-67
2023/01/17 13:12:03;;;;;;;;;;;;;;;15.80;46.91;97917.69;4968928;27;109320;-67
2023/01/17 13:14:29;;;;;;;;;;;;;;;15.76;47.00;97923.09;4968919;27;110971;-67
2023/01/17 13:16:59;;;;;;;;;;;;;;;15.70;47.04;97927.25;4985503;27;100115;-68
2023/01/17 13:19:43;;;;;;;;;;;;;;;15.59;47.17;97927.03;4985228;27;98976;-67
2023/01/17 13:22:16;;;;;;;;;;;;;;;15.46;47.34;97937.28;4981083;27;111844;-68
2023/01/17 13:24:47;;;;;;;;;;;;;;;15.34;47.44;97945.59;4984054;27;99747;-67
2023/01/17 13:27:13;;;;;;;;;;;;;;;15.25;47.45;97949.66;4987384;27;100298;-68
2023/01/17 13:29:51;;;;;;;;;;;;;;;15.15;47.37;97953.75;5002167;27;98042;-67
2023/01/17 13:32:39;;;;;;;;;;;;;;;15.05;47.61;97960.53;4985012;27;98141;-68
2023/01/17 13:35:32;;;;;;;;;;;;;;;14.94;47.59;97963.03;5002556;27;98660;-67
2023/01/17 13:38:16;;;;;;;;;;;;;;;14.86;47.53;97969.44;5016710;27;98407;-68
2023/01/17 13:40:53;;;;;;;;;;;;;;;14.80;47.61;97972.78;5020332;27;99100;-68
2023/01/17 13:43:27;;;;;;;;;;;;;;;14.74;47.39;97964.16;4985924;27;111848;-68
2023/01/17 13:45:55;;;;;;;;;;;;;;;14.68;47.66;97960.91;4966339;27;123227;-67
2023/01/17 13:48:21;;;;;;;;;;;;;;;14.63;47.88;97969.34;4963479;27;100194;-67
2023/01/17 13:50:49;;;;;;;;;;;;;;;14.59;47.79;97968.47;5018831;27;98317;-68
2023/01/17 13:53:33;;;;;;;;;;;;;;;14.56;47.56;97971.09;4998409;27;98204;-67
2023/01/17 13:56:18;;;;;;;;;;;;;;;14.55;47.56;97966.81;4991752;27;100758;-67
2023/01/17 13:58:48;;;;;;;;;;;;;;;14.53;47.94;97988.06;4982387;27;99905;-67
2023/01/17 14:01:37;;;;;;;;;;;;;;;14.51;47.73;97987.63;5016531;27;98124;-67
2023/01/17 14:04:12;;;;;;;;;;;;;;;14.48;47.49;97991.81;4981291;27;98232;-67
2023/01/17 14:06:43;;;;;;;;;;;;;;;14.45;47.45;97993.28;4995817;27;128086;-67
2023/01/17 14:09:11;;;;;;;;;;;;;;;14.42;47.51;97991.28;4966009;27;98307;-67
2023/01/17 14:11:52;;;;;;;;;;;;;;;14.39;47.25;98000.13;4998982;27;98111;-68
2023/01/17 14:14:47;;;;;;;;;;;;;;;14.36;47.77;98000.03;5015435;27;98100;-68
2023/01/17 14:17:16;;;;;;;;;;;;;;;14.28;47.56;98009.13;4981444;27;124074;-67
2023/01/17 14:19:52;;;;;;;;;;;;;;;14.20;47.75;98019.00;5013845;27;99430;-68